Airfield :
LOGIN :

Register | Disclaimer

   EN    FR    IT 

 










Legend :    VFR   Marginal VFR   IFR   Intensive IFR   Very Intensive IFR
Visi :
Ceiling :
>= 8 km
>= 3000ft
5 to 8 km
1000 to 3000 ft
1500m to 5 km
500 to 1000 ft
800 to 1500m
200 to 500 ft
< 800m
< 200 ft
Symbols :   Thunderstorms  Fog  Heavy snow  Heavy precipitations  Wind > 20 kt
SIGMETs :     Misc.  Thunderstorms  Icing  Turbulence  Mountain Waves  Volcanic Ashes






- Airport Elevation : 288 ft
- IATA code : BZZ


EGVN - RAF Brize Norton

CURRENT METAR :
  • 150850Z 18003KT 9000 HZ FEW006 BKN011 11/09 Q1003 BECMG SCT015

EXPIRED METARs :
  • 150820Z 19003KT 5000 HZ SCT007 BKN011 11/09 Q1003 BECMG 9999 NSW SCT015 RMK GRN TEMPO WHT
  • 150750Z 20002KT 7000 HZ FEW004 SCT009 BKN037 11/09 Q1003 TEMPO 9999 NSW SCT015
  • 150720Z 21002KT 9000 HZ BKN009 10/09 Q1003 TEMPO BKN015 RMK GRN TEMPO WHT
  • 150650Z 19002KT 9000 HZ OVC010 10/09 Q1003 NOSIG RMK GRN GRN

TAF TAF EGVN
Valid from the 15 at 09:00 until the 16 at 09:00 UTC


150757Z 1509/1609 21006KT 9999 BKN010
BECMG 1509/1511 SCT015
BECMG 1511/1513 SCT025
PROB30
TEMPO 1513/1517 -SHRA SCT015
BECMG 1600/1603 BKN012
TEMPO 1601/1607 4000 RA SCT006 BKN012



MET'MAP, your aeronautical weather chart ! - Copyright ORBIFLY December 2007 - Disclaimer

ORBIFLY MET'MAP TEAM :

Programming & Development : Alexandra Zaïnal
Concept & Development : Baudouin d'Aumeries
Co-Development & Prog : Marc-Olivier Méhu
Technical & hardware support : Manuel Goepfert

Contact : metmap@orbifly.com




SOURCES & CREDITS :

   NOAA